Terminal Aerodrome Forecast
Issued by NWS Tampa Bay Area, FL

Home | Current Version | Previous Version | Text Only | Print | Product List | Glossary On
Versions: 1 2 3 4 5 6 7 8 9 10 11 12 13 14 15 16 17 18 19 20 21 22 23 24 25 26 27 28
000
FTUS42 KTBW 051129
TAFTPA
TAF
KTPA 051129Z 0512/0612 31006KT P6SM FEW035
     FM051500 31013G20KT P6SM FEW040
     FM051800 29015G25KT P6SM SCT040
     FM052300 30011KT P6SM SKC=

USA.gov is the U.S. government's official web portal to all federal, state and local government web resources and services.